Latest Weather Observations for kunanyi / Mount Wellington

IDT60801

Issued at 2:21 am EST Friday 3 July 2020 (issued every 10 minutes, with the page automatically refreshed every 10 minutes)

About weather observations | Map of weather stations | Latest weather observations for TAS | Other Formats
Station Details ID: 094087 Name: KUNANYI (MOUNT WELLINGTON PINNACLE) Lat: -42.90 Lon: 147.24 Height: 1260.47 m
Data from the previous 72 hours. | See also: Recent months at kunanyi / Mount Wellington
Date/Time
EST
Temp
°C
App
Temp
°C
Dew
Point
°C
Rel
Hum
%
Delta-T
°C
Wind Press
QNH
hPa
Press
MSL
hPa
Rain since
9am
mm
Dir  Spd
km/h
Gust
km/h
Spd
kts
Gust
kts
03/02:00am -1.3 -9.7 -1.3 100 0.0 NW 33 44 18 24 - - 0.6
03/01:30am -1.3 -9.5 -1.3 100 0.0 NW 32 39 17 21 - - 0.6
03/01:00am -1.3 -9.2 -1.3 100 0.0 NW 30 39 16 21 - - 0.6
03/12:30am -0.7 -9.1 -0.7 100 0.0 NW 33 41 18 22 - - 0.6
03/12:00am -0.4 -8.7 -0.4 100 0.0 NW 33 43 18 23 - - 0.6
 
Date/Time
EST
Temp
°C
App
Temp
°C
Dew
Point
°C
Rel
Hum
%
Delta-T
°C
Wind Press
QNH
hPa
Press
MSL
hPa
Rain since
9am
mm
Dir  Spd
km/h
Gust
km/h
Spd
kts
Gust
kts
02/11:30pm -0.3 -9.4 -0.3 100 0.0 NW 37 46 20 25 - - 0.6
02/11:00pm -0.2 -8.9 -0.2 100 0.0 NW 35 46 19 25 - - 0.6
02/10:41pm -0.2 -10.6 -0.2 100 0.0 WNW 44 65 24 35 - - 0.6
02/10:30pm -0.2 -11.0 -0.2 100 0.0 WNW 46 57 25 31 - - 0.6
02/10:00pm -0.1 -10.3 -0.1 100 0.0 WNW 43 52 23 28 - - 0.6
02/09:30pm -0.1 -11.2 -0.1 100 0.0 W 48 59 26 32 - - 0.6
02/09:00pm 0.0 -10.2 0.0 100 0.0 W 43 57 23 31 - - 0.6
02/08:30pm 0.3 -10.0 0.3 100 0.0 W 44 65 24 35 - - 0.6
02/08:21pm 0.4 -9.7 0.4 100 0.0 W 43 61 23 33 - - 0.6
02/08:00pm 0.4 -10.6 0.4 100 0.0 W 48 65 26 35 - - 0.6
02/07:34pm 0.3 -11.5 0.3 100 0.0 W 52 72 28 39 - - 0.6
02/07:30pm 0.3 -11.9 0.3 100 0.0 W 54 72 29 39 - - 0.6
02/07:01pm 0.4 -9.7 0.4 100 0.0 W 43 61 23 33 - - 0.6
02/07:00pm 0.4 -9.9 0.4 100 0.0 W 44 61 24 33 - - 0.6
02/06:30pm 0.5 -9.6 0.5 100 0.0 WNW 43 52 23 28 - - 0.4
02/06:01pm 0.6 -10.8 0.6 100 0.0 W 50 69 27 37 - - 0.4
02/06:00pm 0.6 -11.2 0.6 100 0.0 W 52 69 28 37 - - 0.4
02/05:31pm 0.5 -10.5 0.5 100 0.0 WNW 48 72 26 39 - - 0.4
02/05:30pm 0.4 -10.6 0.4 100 0.0 WNW 48 61 26 33 - - 0.4
02/05:08pm 0.5 -9.8 0.5 100 0.0 WNW 44 65 24 35 - - 0.4
02/05:00pm 0.5 -10.1 0.5 100 0.0 WNW 46 61 25 33 - - 0.4
02/04:47pm 0.4 -9.9 0.4 100 0.0 NW 44 63 24 34 - - 0.2
02/04:30pm 0.6 -9.7 0.6 100 0.0 NW 44 61 24 33 - - 0.2
02/04:00pm 0.7 -10.3 0.7 100 0.0 WNW 48 67 26 36 - - 0.2
02/03:41pm 0.8 -9.8 0.8 100 0.0 NW 46 65 25 35 - - 0.2
02/03:30pm 0.9 -9.1 0.9 100 0.0 NW 43 59 23 32 - - 0.2
02/03:00pm 0.9 -8.4 0.8 99 0.0 NW 39 52 21 28 - - 0.2
02/02:30pm 1.5 -8.9 -0.3 88 0.7 WNW 44 65 24 35 - - 0.2
02/02:09pm 1.2 -9.9 -0.1 91 0.5 WNW 48 67 26 36 - - 0.2
02/02:00pm 1.5 -10.3 0.2 91 0.5 WNW 52 67 28 36 - - 0.2
02/01:42pm 1.4 -10.1 0.2 92 0.5 WNW 50 70 27 38 - - 0.2
02/01:30pm 1.5 -11.1 -0.1 89 0.6 W 56 70 30 38 - - 0.2
02/01:00pm 1.8 -9.8 -0.9 82 1.1 W 50 70 27 38 - - 0.2
02/12:30pm 1.7 -12.4 -1.4 80 1.2 W 63 95 34 51 - - 0.2
02/12:00pm 1.8 -13.3 1.2 96 0.2 WSW 70 91 38 49 - - 0.2
02/11:30am 1.6 -12.6 1.2 97 0.2 WSW 65 83 35 45 - - 0.0
02/11:02am 1.4 -12.0 1.4 100 0.0 W 61 80 33 43 - - 0.0
02/11:00am 1.6 -11.7 1.6 100 0.0 W 61 74 33 40 - - 0.0
02/10:30am 1.2 -11.9 0.8 97 0.2 W 59 80 32 43 - - 0.0
02/10:17am 1.3 -11.4 0.9 97 0.2 W 57 78 31 42 - - 0.0
02/10:00am 1.0 -12.1 0.7 98 0.1 W 59 72 32 39 - - 0.0
02/09:30am 1.1 -10.6 1.1 100 0.0 W 52 70 28 38 - - 0.0
02/09:17am 1.0 -11.1 1.0 100 0.0 W 54 72 29 39 - - 0.0
02/09:00am 1.0 -12.0 1.0 100 0.0 WSW 59 72 32 39 - - 3.6
02/08:30am 0.8 -11.3 0.8 100 0.0 WSW 54 69 29 37 - - 3.6
02/08:00am 0.6 -11.6 0.6 100 0.0 WSW 54 67 29 36 - - 3.6
02/07:30am 0.6 -10.4 0.6 100 0.0 W 48 57 26 31 - - 3.4
02/07:15am 0.6 -9.7 0.6 100 0.0 WNW 44 57 24 31 - - 3.2
02/07:00am 0.4 -11.8 0.4 100 0.0 NW 54 74 29 40 - - 3.0
02/06:57am 0.5 -12.0 0.5 100 0.0 NW 56 74 30 40 - - 3.0
02/06:47am 1.4 -10.6 1.4 100 0.0 NW 54 70 29 38 - - 2.6
02/06:30am 2.6 -8.5 2.6 100 0.0 NNW 50 69 27 37 - - 2.0
02/06:00am 2.7 -9.5 2.7 100 0.0 N 56 74 30 40 - - 0.8
02/05:59am 2.8 -9.4 2.8 100 0.0 N 56 74 30 40 - - 0.8
02/05:30am 2.8 -8.2 2.8 100 0.0 N 50 63 27 34 - - 0.6
02/05:00am 2.6 -9.2 2.6 100 0.0 N 54 69 29 37 - - 0.6
02/04:30am 2.5 -9.0 2.5 100 0.0 N 52 65 28 35 - - 0.4
02/04:00am 2.5 -9.7 2.5 100 0.0 N 56 76 30 41 - - 0.4
02/03:53am 2.5 -8.6 2.5 100 0.0 N 50 72 27 39 - - 0.4
02/03:30am 2.5 -8.6 2.5 100 0.0 N 50 63 27 34 - - 0.4
02/03:00am 2.8 -7.9 2.8 100 0.0 N 48 61 26 33 - - 0.4
02/02:30am 2.8 -9.6 2.8 100 0.0 N 57 80 31 43 - - 0.2
02/02:00am 3.3 -10.9 2.9 97 0.2 N 67 85 36 46 - - 0.0
02/01:30am 3.6 -10.7 2.6 93 0.4 N 67 89 36 48 - - 0.0
02/01:08am 3.4 -10.6 2.4 93 0.4 N 65 83 35 45 - - 0.0
02/01:00am 3.5 -11.4 2.2 91 0.6 N 70 87 38 47 - - 0.0
02/12:36am 3.0 -9.3 2.1 94 0.4 NNW 56 76 30 41 - - 0.0
02/12:30am 2.9 -9.4 1.9 93 0.4 N 56 72 30 39 - - 0.0
02/12:09am 3.3 -10.8 1.7 89 0.7 N 65 83 35 45 - - 0.0
02/12:00am 3.0 -10.3 1.5 90 0.6 N 61 76 33 41 - - 0.0
 
Date/Time
EST
Temp
°C
App
Temp
°C
Dew
Point
°C
Rel
Hum
%
Delta-T
°C
Wind Press
QNH
hPa
Press
MSL
hPa
Rain since
9am
mm
Dir  Spd
km/h
Gust
km/h
Spd
kts
Gust
kts
01/11:30pm 2.9 -9.4 2.0 94 0.4 NNW 56 76 30 41 - - 0.0
01/11:26pm 2.8 -9.1 2.2 96 0.3 NNW 54 76 29 41 - - 0.0
01/11:00pm 2.7 -9.6 1.8 94 0.4 NNW 56 69 30 37 - - 0.0
01/10:30pm 2.9 -10.4 1.6 91 0.5 NNW 61 76 33 41 - - 0.0
01/10:16pm 3.0 -10.3 1.5 90 0.6 NNW 61 82 33 44 - - 0.0
01/10:00pm 3.1 -10.3 1.2 87 0.8 NNW 61 78 33 42 - - 0.0
01/09:56pm 3.0 -9.4 1.4 89 0.7 NNW 56 76 30 41 - - 0.0
01/09:30pm 3.0 -9.6 1.5 90 0.6 NNW 57 69 31 37 - - 0.0
01/09:00pm 2.9 -9.1 1.4 90 0.6 NNW 54 67 29 36 - - 0.0
01/08:30pm 2.7 -8.5 1.7 93 0.4 NNW 50 63 27 34 - - 0.0
01/08:00pm 2.7 -7.8 1.4 91 0.5 NNW 46 65 25 35 - - 0.0
01/07:30pm 2.5 -8.0 1.6 94 0.4 NNW 46 57 25 31 - - 0.0
01/07:00pm 2.6 -7.4 1.9 95 0.3 NNW 44 59 24 32 - - 0.0
01/06:41pm 2.7 -7.3 2.1 96 0.3 NNW 44 65 24 35 - - 0.0
01/06:30pm 2.8 -7.0 2.2 96 0.3 NNW 43 54 23 29 - - 0.0
01/06:00pm 2.8 -7.0 2.1 95 0.3 NNW 43 50 23 27 - - 0.0
01/05:30pm 2.9 -7.5 1.9 93 0.4 NNW 46 61 25 33 - - 0.0
01/05:00pm 2.8 -7.0 2.4 97 0.2 NNW 43 54 23 29 - - 0.0
01/04:30pm 3.0 -6.4 2.1 94 0.4 NNW 41 54 22 29 - - 0.0
01/04:00pm 2.9 -6.8 2.6 98 0.1 NW 43 48 23 26 - - 0.0
01/03:30pm 3.2 -6.7 2.5 95 0.3 NNW 44 57 24 31 - - 0.0
01/03:00pm 3.2 -6.5 2.6 96 0.3 NNW 43 52 23 28 - - 0.0
01/02:30pm 3.8 -5.6 2.5 91 0.6 NNW 41 52 22 28 - - 0.0
01/02:00pm 4.5 -5.5 2.0 84 1.1 NNW 44 57 24 31 - - 0.0
01/01:30pm 4.2 -4.5 2.2 87 0.9 NNW 37 56 20 30 - - 0.0
01/01:00pm 3.3 -5.0 2.3 93 0.4 NNW 35 46 19 25 - - 0.0
01/12:30pm 3.8 -3.5 2.2 89 0.7 NNW 30 43 16 23 - - 0.0
01/12:00pm 4.3 -3.2 1.5 82 1.2 NNW 30 43 16 23 - - 0.0
01/11:46am 4.3 -2.8 1.5 82 1.2 NNW 28 48 15 26 - - 0.0
01/11:30am 4.8 -1.8 2.0 82 1.2 NNW 26 43 14 23 - - 0.0
01/11:00am 4.3 -2.8 1.3 81 1.3 NW 28 35 15 19 - - 0.0
01/10:30am 4.0 -4.8 1.5 84 1.1 NW 37 46 20 25 - - 0.0
01/10:00am 3.5 -4.4 0.9 83 1.1 NW 32 43 17 23 - - 0.0
01/09:30am 3.2 -6.6 -0.1 79 1.3 WNW 41 50 22 27 - - 0.0
01/09:00am 2.7 -6.8 -0.4 80 1.2 WNW 39 50 21 27 - - 0.0
01/08:42am 2.2 -6.8 0.1 86 0.8 W 37 48 20 26 - - 0.0
01/08:30am 1.7 -6.5 0.1 89 0.6 WSW 33 48 18 26 - - 0.0
01/08:00am 1.0 -6.6 0.4 96 0.2 W 30 39 16 21 - - 0.0
01/07:30am 1.0 -7.2 0.3 95 0.3 W 33 44 18 24 - - 0.0
01/07:00am 1.3 -6.9 0.6 95 0.3 WNW 33 41 18 22 - - 0.0
01/06:30am 1.3 -6.8 1.3 100 0.0 WNW 33 46 18 25 - - 0.0
01/06:00am 1.4 -6.6 1.4 100 0.0 WNW 33 43 18 23 - - 0.0
01/05:30am 1.5 -6.9 1.4 99 0.0 WNW 35 44 19 24 - - 0.0
01/05:00am 1.6 -7.2 1.5 99 0.0 WNW 37 48 20 26 - - 0.0
01/04:30am 1.7 -7.0 1.7 100 0.0 WNW 37 46 20 25 - - 0.0
01/04:00am 1.5 -8.1 1.2 98 0.1 NW 41 56 22 30 - - 0.0
01/03:39am 1.7 -8.3 0.8 94 0.4 NW 43 63 23 34 - - 0.0
01/03:30am 1.7 -8.6 0.5 92 0.5 NW 44 61 24 33 - - 0.0
01/03:03am 1.9 -9.5 0.3 89 0.6 NW 50 69 27 37 - - 0.0
01/03:00am 1.8 -9.3 0.3 90 0.6 NW 48 61 26 33 - - 0.0
01/02:30am 1.5 -10.0 0.2 91 0.5 NW 50 63 27 34 - - 0.0
01/02:00am 1.6 -10.3 -0.3 87 0.8 NW 52 65 28 35 - - 0.0
01/01:30am 1.4 -9.8 -0.4 88 0.7 WNW 48 59 26 32 - - 0.0
01/01:00am 1.3 -10.3 -0.8 86 0.8 WNW 50 65 27 35 - - 0.0
01/12:30am 1.4 -11.5 -0.8 85 0.9 WNW 57 76 31 41 - - 0.0
01/12:27am 1.4 -11.5 -0.8 85 0.9 WNW 57 76 31 41 - - 0.0
01/12:00am 1.3 -11.4 -0.8 86 0.8 WNW 56 69 30 37 - - 0.0
 
Date/Time
EST
Temp
°C
App
Temp
°C
Dew
Point
°C
Rel
Hum
%
Delta-T
°C
Wind Press
QNH
hPa
Press
MSL
hPa
Rain since
9am
mm
Dir  Spd
km/h
Gust
km/h
Spd
kts
Gust
kts
30/11:30pm 1.4 -11.5 -0.5 87 0.7 NW 57 70 31 38 - - 0.0
30/11:00pm 1.5 -11.2 -0.4 87 0.8 NW 56 67 30 36 - - 0.0
30/10:30pm 1.6 -10.9 0.7 94 0.4 NW 56 65 30 35 - - 0.0
30/10:00pm 1.8 -10.9 0.5 91 0.5 NW 57 70 31 38 - - 0.0
30/09:30pm 1.7 -9.4 -0.2 87 0.8 NW 48 59 26 32 - - 0.0
30/09:00pm 1.6 -8.6 -0.3 87 0.8 NW 43 54 23 29 - - 0.0
30/08:30pm 1.5 -8.7 -0.1 89 0.6 NNW 43 50 23 27 - - 0.0
30/08:00pm 1.7 -8.5 -0.1 88 0.7 NNW 43 54 23 29 - - 0.0
30/07:30pm 1.6 -8.2 -0.2 88 0.7 NNW 41 52 22 28 - - 0.0
30/07:00pm 1.8 -10.5 -0.3 86 0.8 NNW 54 65 29 35 - - 0.0
30/06:30pm 1.6 -10.7 -0.2 88 0.7 NNW 54 65 29 35 - - 0.0
30/06:00pm 1.8 -11.1 -0.3 86 0.8 NNW 57 69 31 37 - - 0.0
30/05:30pm 1.5 -9.6 0.2 91 0.5 NNW 48 61 26 33 - - 0.0
30/05:00pm 1.3 -9.4 0.1 92 0.5 NNW 46 56 25 30 - - 0.0
30/04:30pm 1.3 -9.7 0.7 96 0.2 NNW 48 59 26 32 - - 0.0
30/04:00pm 1.5 -9.5 0.6 94 0.4 NNW 48 57 26 31 - - 0.0
30/03:30pm 1.7 -7.3 0.4 91 0.5 NNW 37 46 20 25 - - 0.0
30/03:00pm 2.7 -7.0 0.3 84 1.0 NNW 41 52 22 28 - - 0.0
30/02:30pm 2.1 -7.7 -0.2 85 0.9 NNW 41 50 22 27 - - 0.0
30/02:00pm 1.7 -7.8 -0.5 85 0.9 NNW 39 48 21 26 - - 0.0
30/01:30pm 1.8 -7.7 -0.9 82 1.1 NNW 39 50 21 27 - - 0.0
30/01:00pm 2.1 -8.8 -1.3 78 1.3 NNW 46 56 25 30 - - 0.0
30/12:30pm 1.8 -9.1 -1.4 79 1.2 NW 46 57 25 31 - - 0.0
30/12:00pm 1.0 -10.3 -1.2 85 0.8 NW 48 59 26 32 - - 0.0
30/11:30am 1.1 -9.2 -1.3 84 0.9 NW 43 52 23 28 - - 0.0
30/11:00am 3.7 -7.3 -6.8 46 3.6 NNW 43 56 23 30 - - 0.0
30/10:30am 3.6 -5.7 -5.8 50 3.3 NNW 35 46 19 25 - - 0.0
30/10:00am 3.1 -5.8 -2.0 69 2.0 NNW 35 43 19 23 - - 0.0
30/09:30am 3.6 -5.3 -1.7 68 2.1 NNW 35 50 19 27 - - 0.0
30/09:00am 3.7 -4.5 -1.3 70 2.0 NNW 32 48 17 26 - - 0.4
30/08:30am 3.4 -4.8 -0.8 74 1.7 NNW 32 39 17 21 - - 0.4
30/08:00am 2.2 -5.1 -0.1 85 0.9 NW 28 32 15 17 - - 0.4
30/07:30am 2.5 -4.8 0.1 84 1.0 NW 28 32 15 17 - - 0.4
30/07:00am 2.1 -4.4 0.5 89 0.7 NW 24 28 13 15 - - 0.4
30/06:30am 1.8 -4.2 0.8 93 0.4 NNW 22 26 12 14 - - 0.4
30/06:00am 1.7 -4.6 1.7 100 0.0 NNW 24 28 13 15 - - 0.4
30/05:30am 1.6 -4.7 1.6 100 0.0 NNW 24 28 13 15 - - 0.4
30/05:00am 1.6 -4.7 1.6 100 0.0 NNW 24 28 13 15 - - 0.2
30/04:30am 1.8 -4.5 1.8 100 0.0 NNW 24 28 13 15 - - 0.2
30/04:00am 2.1 -3.4 2.1 100 0.0 NNW 20 24 11 13 - - 0.2
30/03:30am 2.1 -3.2 2.1 100 0.0 NNW 19 22 10 12 - - 0.2
30/03:00am 2.0 -3.3 2.0 100 0.0 N 19 20 10 11 - - 0.2
30/02:30am 2.0 -2.9 2.0 100 0.0 N 17 20 9 11 - - 0.2

Other formats

Comma delimited format used in spreadsheet applications
http://www.bom.gov.au/fwo/IDT60801/IDT60801.95979.axf

JavaScript Object Notation format (JSON) in row-major order
http://www.bom.gov.au/fwo/IDT60801/IDT60801.95979.json

Data quality

Most of these data are generated automatically and are frequently updated. Quality checks on data are not normally performed. It is possible for incorrect values to appear. Refer to information at About Latest Weather Observations and please check the disclaimer before using these data.